sensor_id;sensor_type;location;lat;lon;timestamp;P1;durP1;ratioP1;P2;durP2;ratioP2
19113;SDS011;9689;51.052;13.772;2022-09-27T00:01:44;4.63;;;1.67;;
19113;SDS011;9689;51.052;13.772;2022-09-27T00:06:45;3.15;;;1.52;;
19113;SDS011;9689;51.052;13.772;2022-09-27T00:11:46;3.92;;;2.10;;
19113;SDS011;9689;51.052;13.772;2022-09-27T00:16:48;3.58;;;1.65;;
19113;SDS011;9689;51.052;13.772;2022-09-27T00:21:49;4.68;;;1.88;;
19113;SDS011;9689;51.052;13.772;2022-09-27T00:26:49;7.38;;;1.80;;
19113;SDS011;9689;51.052;13.772;2022-09-27T00:31:52;3.72;;;1.42;;
19113;SDS011;9689;51.052;13.772;2022-09-27T00:36:52;3.03;;;1.58;;
19113;SDS011;9689;51.052;13.772;2022-09-27T00:41:53;1.90;;;1.42;;
19113;SDS011;9689;51.052;13.772;2022-09-27T00:46:57;4.30;;;1.45;;
19113;SDS011;9689;51.052;13.772;2022-09-27T00:52:02;5.45;;;1.63;;
19113;SDS011;9689;51.052;13.772;2022-09-27T00:57:07;3.88;;;1.52;;
19113;SDS011;9689;51.052;13.772;2022-09-27T01:02:10;6.70;;;1.88;;
19113;SDS011;9689;51.052;13.772;2022-09-27T01:07:12;1.30;;;1.20;;
19113;SDS011;9689;51.052;13.772;2022-09-27T01:12:15;4.30;;;1.60;;
19113;SDS011;9689;51.052;13.772;2022-09-27T01:17:27;3.03;;;1.58;;
19113;SDS011;9689;51.052;13.772;2022-09-27T01:22:39;6.32;;;1.80;;
19113;SDS011;9689;51.052;13.772;2022-09-27T01:28:04;4.35;;;1.90;;
19113;SDS011;9689;51.052;13.772;2022-09-27T01:33:24;5.13;;;1.83;;
19113;SDS011;9689;51.052;13.772;2022-09-27T01:38:38;5.35;;;2.40;;
19113;SDS011;9689;51.052;13.772;2022-09-27T01:43:47;2.90;;;1.80;;
19113;SDS011;9689;51.052;13.772;2022-09-27T01:49:01;5.80;;;1.60;;
19113;SDS011;9689;51.052;13.772;2022-09-27T01:54:10;5.93;;;1.70;;
19113;SDS011;9689;51.052;13.772;2022-09-27T01:59:51;3.40;;;1.33;;
19113;SDS011;9689;51.052;13.772;2022-09-27T02:05:19;2.97;;;1.50;;
19113;SDS011;9689;51.052;13.772;2022-09-27T02:10:30;2.78;;;1.40;;
19113;SDS011;9689;51.052;13.772;2022-09-27T02:15:42;2.70;;;1.38;;
19113;SDS011;9689;51.052;13.772;2022-09-27T02:21:03;2.13;;;1.20;;
19113;SDS011;9689;51.052;13.772;2022-09-27T02:26:09;2.67;;;1.20;;
19113;SDS011;9689;51.052;13.772;2022-09-27T02:31:13;4.90;;;1.50;;
19113;SDS011;9689;51.052;13.772;2022-09-27T02:36:16;2.97;;;1.70;;
19113;SDS011;9689;51.052;13.772;2022-09-27T02:41:17;4.10;;;2.13;;
19113;SDS011;9689;51.052;13.772;2022-09-27T02:46:24;6.03;;;2.35;;
19113;SDS011;9689;51.052;13.772;2022-09-27T02:51:42;4.10;;;2.00;;
19113;SDS011;9689;51.052;13.772;2022-09-27T02:56:50;8.27;;;2.40;;
19113;SDS011;9689;51.052;13.772;2022-09-27T03:02:20;3.17;;;2.10;;
19113;SDS011;9689;51.052;13.772;2022-09-27T03:08:01;5.85;;;1.90;;
19113;SDS011;9689;51.052;13.772;2022-09-27T03:13:04;3.45;;;2.28;;
19113;SDS011;9689;51.052;13.772;2022-09-27T03:18:05;3.88;;;2.40;;
19113;SDS011;9689;51.052;13.772;2022-09-27T03:23:26;3.65;;;2.33;;
19113;SDS011;9689;51.052;13.772;2022-09-27T03:28:27;7.95;;;2.58;;
19113;SDS011;9689;51.052;13.772;2022-09-27T03:33:29;5.95;;;2.92;;
19113;SDS011;9689;51.052;13.772;2022-09-27T03:38:32;7.15;;;3.15;;
19113;SDS011;9689;51.052;13.772;2022-09-27T03:43:33;6.70;;;2.90;;
19113;SDS011;9689;51.052;13.772;2022-09-27T03:48:35;4.35;;;3.05;;
19113;SDS011;9689;51.052;13.772;2022-09-27T03:53:38;5.95;;;3.40;;
19113;SDS011;9689;51.052;13.772;2022-09-27T03:58:39;5.68;;;3.45;;
19113;SDS011;9689;51.052;13.772;2022-09-27T04:03:40;6.97;;;3.53;;
19113;SDS011;9689;51.052;13.772;2022-09-27T04:09:02;9.95;;;4.00;;
19113;SDS011;9689;51.052;13.772;2022-09-27T04:14:21;8.25;;;4.20;;
19113;SDS011;9689;51.052;13.772;2022-09-27T04:19:41;7.30;;;3.90;;
19113;SDS011;9689;51.052;13.772;2022-09-27T04:24:44;7.82;;;3.72;;
19113;SDS011;9689;51.052;13.772;2022-09-27T04:29:57;8.48;;;3.97;;
19113;SDS011;9689;51.052;13.772;2022-09-27T04:35:36;10.50;;;4.38;;
19113;SDS011;9689;51.052;13.772;2022-09-27T04:40:56;6.35;;;4.15;;
19113;SDS011;9689;51.052;13.772;2022-09-27T04:46:04;7.80;;;4.50;;
19113;SDS011;9689;51.052;13.772;2022-09-27T04:51:05;8.98;;;5.38;;
19113;SDS011;9689;51.052;13.772;2022-09-27T04:56:07;10.60;;;5.25;;
19113;SDS011;9689;51.052;13.772;2022-09-27T05:01:08;11.77;;;5.78;;
19113;SDS011;9689;51.052;13.772;2022-09-27T05:06:28;7.25;;;4.85;;
19113;SDS011;9689;51.052;13.772;2022-09-27T05:11:39;10.52;;;5.15;;
19113;SDS011;9689;51.052;13.772;2022-09-27T05:16:58;8.60;;;5.50;;
19113;SDS011;9689;51.052;13.772;2022-09-27T05:22:17;8.20;;;5.38;;
19113;SDS011;9689;51.052;13.772;2022-09-27T05:27:20;8.25;;;5.50;;
19113;SDS011;9689;51.052;13.772;2022-09-27T05:32:20;7.10;;;5.28;;
19113;SDS011;9689;51.052;13.772;2022-09-27T05:37:31;8.40;;;5.05;;
19113;SDS011;9689;51.052;13.772;2022-09-27T05:42:33;13.02;;;6.20;;
19113;SDS011;9689;51.052;13.772;2022-09-27T05:47:38;9.65;;;6.07;;
19113;SDS011;9689;51.052;13.772;2022-09-27T05:52:39;8.60;;;6.03;;
19113;SDS011;9689;51.052;13.772;2022-09-27T05:57:41;7.57;;;5.45;;
19113;SDS011;9689;51.052;13.772;2022-09-27T06:02:42;7.60;;;5.45;;
19113;SDS011;9689;51.052;13.772;2022-09-27T06:08:18;10.88;;;5.68;;
19113;SDS011;9689;51.052;13.772;2022-09-27T06:13:22;7.85;;;5.60;;
19113;SDS011;9689;51.052;13.772;2022-09-27T06:18:23;7.85;;;6.03;;
19113;SDS011;9689;51.052;13.772;2022-09-27T06:23:24;18.30;;;7.28;;
19113;SDS011;9689;51.052;13.772;2022-09-27T06:28:29;13.32;;;6.80;;
19113;SDS011;9689;51.052;13.772;2022-09-27T06:33:31;9.60;;;6.85;;
19113;SDS011;9689;51.052;13.772;2022-09-27T06:38:34;10.68;;;7.40;;
19113;SDS011;9689;51.052;13.772;2022-09-27T06:44:07;10.68;;;6.93;;
19113;SDS011;9689;51.052;13.772;2022-09-27T06:49:28;12.43;;;7.53;;
19113;SDS011;9689;51.052;13.772;2022-09-27T06:54:31;10.45;;;7.75;;
19113;SDS011;9689;51.052;13.772;2022-09-27T06:59:33;12.05;;;7.18;;
19113;SDS011;9689;51.052;13.772;2022-09-27T07:05:20;10.23;;;6.72;;
19113;SDS011;9689;51.052;13.772;2022-09-27T07:10:34;13.05;;;6.53;;
19113;SDS011;9689;51.052;13.772;2022-09-27T07:15:39;10.88;;;7.50;;
19113;SDS011;9689;51.052;13.772;2022-09-27T07:20:45;9.45;;;7.25;;
19113;SDS011;9689;51.052;13.772;2022-09-27T07:25:46;9.50;;;6.68;;
19113;SDS011;9689;51.052;13.772;2022-09-27T07:30:54;9.77;;;7.18;;
19113;SDS011;9689;51.052;13.772;2022-09-27T07:35:57;12.20;;;7.10;;
19113;SDS011;9689;51.052;13.772;2022-09-27T07:41:03;11.57;;;7.05;;
19113;SDS011;9689;51.052;13.772;2022-09-27T07:46:06;9.25;;;7.05;;
19113;SDS011;9689;51.052;13.772;2022-09-27T07:51:42;11.93;;;6.25;;
19113;SDS011;9689;51.052;13.772;2022-09-27T07:57:02;10.38;;;7.03;;
19113;SDS011;9689;51.052;13.772;2022-09-27T08:02:05;9.32;;;6.32;;
19113;SDS011;9689;51.052;13.772;2022-09-27T08:07:06;8.27;;;6.43;;
19113;SDS011;9689;51.052;13.772;2022-09-27T08:12:14;7.15;;;5.97;;
19113;SDS011;9689;51.052;13.772;2022-09-27T08:17:17;7.57;;;5.78;;
19113;SDS011;9689;51.052;13.772;2022-09-27T08:22:40;7.32;;;6.20;;
19113;SDS011;9689;51.052;13.772;2022-09-27T08:27:59;6.57;;;5.78;;
19113;SDS011;9689;51.052;13.772;2022-09-27T08:33:23;5.18;;;4.22;;
19113;SDS011;9689;51.052;13.772;2022-09-27T08:38:31;5.25;;;3.28;;
19113;SDS011;9689;51.052;13.772;2022-09-27T08:43:33;3.47;;;2.35;;
19113;SDS011;9689;51.052;13.772;2022-09-27T08:48:42;2.00;;;1.13;;
19113;SDS011;9689;51.052;13.772;2022-09-27T08:53:48;0.88;;;0.63;;
19113;SDS011;9689;51.052;13.772;2022-09-27T08:58:56;1.08;;;0.80;;
19113;SDS011;9689;51.052;13.772;2022-09-27T09:04:05;0.73;;;0.45;;
19113;SDS011;9689;51.052;13.772;2022-09-27T09:09:11;1.52;;;0.70;;
19113;SDS011;9689;51.052;13.772;2022-09-27T09:14:44;1.65;;;0.50;;
19113;SDS011;9689;51.052;13.772;2022-09-27T09:19:59;0.68;;;0.52;;
19113;SDS011;9689;51.052;13.772;2022-09-27T09:25:29;0.55;;;0.20;;
19113;SDS011;9689;51.052;13.772;2022-09-27T09:30:39;0.60;;;0.32;;
19113;SDS011;9689;51.052;13.772;2022-09-27T09:35:48;0.63;;;0.30;;
19113;SDS011;9689;51.052;13.772;2022-09-27T09:40:54;0.95;;;0.43;;
19113;SDS011;9689;51.052;13.772;2022-09-27T09:46:01;0.22;;;0.22;;
19113;SDS011;9689;51.052;13.772;2022-09-27T09:51:12;0.60;;;0.30;;
19113;SDS011;9689;51.052;13.772;2022-09-27T09:56:19;0.30;;;0.28;;
19113;SDS011;9689;51.052;13.772;2022-09-27T10:01:25;0.45;;;0.35;;
19113;SDS011;9689;51.052;13.772;2022-09-27T10:06:30;0.45;;;0.38;;
19113;SDS011;9689;51.052;13.772;2022-09-27T10:11:34;0.85;;;0.40;;
19113;SDS011;9689;51.052;13.772;2022-09-27T10:17:02;0.38;;;0.30;;
19113;SDS011;9689;51.052;13.772;2022-09-27T10:22:10;0.93;;;0.40;;
19113;SDS011;9689;51.052;13.772;2022-09-27T10:27:17;1.33;;;0.75;;
19113;SDS011;9689;51.052;13.772;2022-09-27T10:32:20;0.30;;;0.30;;
19113;SDS011;9689;51.052;13.772;2022-09-27T10:37:39;0.22;;;0.22;;
19113;SDS011;9689;51.052;13.772;2022-09-27T10:42:45;0.55;;;0.30;;
19113;SDS011;9689;51.052;13.772;2022-09-27T10:47:53;0.35;;;0.20;;
19113;SDS011;9689;51.052;13.772;2022-09-27T10:53:12;0.57;;;0.30;;
19113;SDS011;9689;51.052;13.772;2022-09-27T10:58:23;2.53;;;0.17;;
19113;SDS011;9689;51.052;13.772;2022-09-27T11:03:26;1.42;;;0.28;;
19113;SDS011;9689;51.052;13.772;2022-09-27T11:08:31;0.60;;;0.30;;
19113;SDS011;9689;51.052;13.772;2022-09-27T11:13:40;0.73;;;0.40;;
19113;SDS011;9689;51.052;13.772;2022-09-27T11:18:45;2.80;;;0.50;;
19113;SDS011;9689;51.052;13.772;2022-09-27T11:24:01;0.20;;;0.10;;
19113;SDS011;9689;51.052;13.772;2022-09-27T11:29:19;0.43;;;0.30;;
19113;SDS011;9689;51.052;13.772;2022-09-27T11:35:04;0.57;;;0.30;;
19113;SDS011;9689;51.052;13.772;2022-09-27T11:40:25;1.02;;;0.20;;
19113;SDS011;9689;51.052;13.772;2022-09-27T11:45:37;0.40;;;0.30;;
19113;SDS011;9689;51.052;13.772;2022-09-27T11:51:11;0.43;;;0.35;;
19113;SDS011;9689;51.052;13.772;2022-09-27T11:56:32;1.08;;;0.85;;
19113;SDS011;9689;51.052;13.772;2022-09-27T12:01:41;0.63;;;0.40;;
19113;SDS011;9689;51.052;13.772;2022-09-27T12:06:51;0.43;;;0.30;;
19113;SDS011;9689;51.052;13.772;2022-09-27T12:11:59;0.25;;;0.25;;
19113;SDS011;9689;51.052;13.772;2022-09-27T12:17:04;2.45;;;0.30;;
19113;SDS011;9689;51.052;13.772;2022-09-27T12:22:13;0.50;;;0.28;;
19113;SDS011;9689;51.052;13.772;2022-09-27T12:27:40;2.88;;;0.40;;
19113;SDS011;9689;51.052;13.772;2022-09-27T12:32:51;0.60;;;0.30;;
19113;SDS011;9689;51.052;13.772;2022-09-27T12:37:58;1.13;;;0.40;;
19113;SDS011;9689;51.052;13.772;2022-09-27T12:43:08;0.75;;;0.30;;
19113;SDS011;9689;51.052;13.772;2022-09-27T12:48:35;0.47;;;0.20;;
19113;SDS011;9689;51.052;13.772;2022-09-27T12:53:47;2.40;;;0.55;;
19113;SDS011;9689;51.052;13.772;2022-09-27T12:59:11;0.65;;;0.30;;
19113;SDS011;9689;51.052;13.772;2022-09-27T13:04:33;0.57;;;0.20;;
19113;SDS011;9689;51.052;13.772;2022-09-27T13:09:57;1.75;;;0.38;;
19113;SDS011;9689;51.052;13.772;2022-09-27T13:15:26;0.55;;;0.30;;
19113;SDS011;9689;51.052;13.772;2022-09-27T13:20:35;0.45;;;0.28;;
19113;SDS011;9689;51.052;13.772;2022-09-27T13:25:58;0.45;;;0.32;;
19113;SDS011;9689;51.052;13.772;2022-09-27T13:31:10;2.08;;;0.30;;
19113;SDS011;9689;51.052;13.772;2022-09-27T13:36:28;1.52;;;0.28;;
19113;SDS011;9689;51.052;13.772;2022-09-27T13:41:38;1.85;;;0.50;;
19113;SDS011;9689;51.052;13.772;2022-09-27T13:46:55;1.02;;;0.35;;
19113;SDS011;9689;51.052;13.772;2022-09-27T13:52:02;2.30;;;0.30;;
19113;SDS011;9689;51.052;13.772;2022-09-27T13:57:37;1.83;;;0.60;;
19113;SDS011;9689;51.052;13.772;2022-09-27T14:02:54;0.60;;;0.50;;
19113;SDS011;9689;51.052;13.772;2022-09-27T14:08:01;3.85;;;0.80;;
19113;SDS011;9689;51.052;13.772;2022-09-27T14:13:03;0.60;;;0.38;;
19113;SDS011;9689;51.052;13.772;2022-09-27T14:18:16;0.88;;;0.40;;
19113;SDS011;9689;51.052;13.772;2022-09-27T14:23:20;1.02;;;0.50;;
19113;SDS011;9689;51.052;13.772;2022-09-27T14:28:23;5.43;;;0.85;;
19113;SDS011;9689;51.052;13.772;2022-09-27T14:33:37;1.50;;;0.70;;
19113;SDS011;9689;51.052;13.772;2022-09-27T14:38:42;1.88;;;0.57;;
19113;SDS011;9689;51.052;13.772;2022-09-27T14:43:55;1.40;;;0.40;;
19113;SDS011;9689;51.052;13.772;2022-09-27T14:49:08;0.65;;;0.30;;
19113;SDS011;9689;51.052;13.772;2022-09-27T14:54:17;0.40;;;0.40;;
19113;SDS011;9689;51.052;13.772;2022-09-27T14:59:21;0.40;;;0.40;;
19113;SDS011;9689;51.052;13.772;2022-09-27T15:04:30;0.80;;;0.40;;
19113;SDS011;9689;51.052;13.772;2022-09-27T15:09:31;0.77;;;0.38;;
19113;SDS011;9689;51.052;13.772;2022-09-27T15:14:32;1.75;;;0.50;;
19113;SDS011;9689;51.052;13.772;2022-09-27T15:19:37;3.35;;;0.47;;
19113;SDS011;9689;51.052;13.772;2022-09-27T15:24:38;1.65;;;0.65;;
19113;SDS011;9689;51.052;13.772;2022-09-27T15:29:40;0.40;;;0.40;;
19113;SDS011;9689;51.052;13.772;2022-09-27T15:34:43;0.80;;;0.43;;
19113;SDS011;9689;51.052;13.772;2022-09-27T15:39:44;0.95;;;0.52;;
19113;SDS011;9689;51.052;13.772;2022-09-27T15:44:45;0.90;;;0.70;;
19113;SDS011;9689;51.052;13.772;2022-09-27T15:49:48;4.22;;;0.70;;
19113;SDS011;9689;51.052;13.772;2022-09-27T15:54:49;2.90;;;0.70;;
19113;SDS011;9689;51.052;13.772;2022-09-27T15:59:50;1.25;;;0.75;;
19113;SDS011;9689;51.052;13.772;2022-09-27T16:04:53;2.40;;;0.70;;
19113;SDS011;9689;51.052;13.772;2022-09-27T16:09:53;1.23;;;0.75;;
19113;SDS011;9689;51.052;13.772;2022-09-27T16:14:54;2.88;;;1.00;;
19113;SDS011;9689;51.052;13.772;2022-09-27T16:19:57;0.90;;;0.80;;
19113;SDS011;9689;51.052;13.772;2022-09-27T16:24:58;2.40;;;1.02;;
19113;SDS011;9689;51.052;13.772;2022-09-27T16:29:59;1.45;;;0.88;;
19113;SDS011;9689;51.052;13.772;2022-09-27T16:35:01;1.17;;;0.73;;
19113;SDS011;9689;51.052;13.772;2022-09-27T16:40:03;0.90;;;0.70;;
19113;SDS011;9689;51.052;13.772;2022-09-27T16:45:05;1.65;;;0.60;;
19113;SDS011;9689;51.052;13.772;2022-09-27T16:50:13;1.27;;;0.68;;
19113;SDS011;9689;51.052;13.772;2022-09-27T16:55:32;1.70;;;0.80;;
19113;SDS011;9689;51.052;13.772;2022-09-27T17:00:33;1.77;;;0.80;;
19113;SDS011;9689;51.052;13.772;2022-09-27T17:05:36;6.05;;;0.80;;
19113;SDS011;9689;51.052;13.772;2022-09-27T17:10:36;3.13;;;1.20;;
19113;SDS011;9689;51.052;13.772;2022-09-27T17:15:37;1.80;;;0.90;;
19113;SDS011;9689;51.052;13.772;2022-09-27T17:20:41;1.73;;;1.10;;
19113;SDS011;9689;51.052;13.772;2022-09-27T17:25:42;1.75;;;1.20;;
19113;SDS011;9689;51.052;13.772;2022-09-27T17:30:42;3.53;;;1.20;;
19113;SDS011;9689;51.052;13.772;2022-09-27T17:35:44;2.15;;;1.00;;
19113;SDS011;9689;51.052;13.772;2022-09-27T17:40:46;3.50;;;1.10;;
19113;SDS011;9689;51.052;13.772;2022-09-27T17:45:46;3.50;;;1.40;;
19113;SDS011;9689;51.052;13.772;2022-09-27T17:50:48;1.77;;;1.00;;
19113;SDS011;9689;51.052;13.772;2022-09-27T17:55:50;2.70;;;1.33;;
19113;SDS011;9689;51.052;13.772;2022-09-27T18:00:52;1.13;;;1.00;;
19113;SDS011;9689;51.052;13.772;2022-09-27T18:06:04;3.28;;;2.05;;
19113;SDS011;9689;51.052;13.772;2022-09-27T18:11:06;4.05;;;1.30;;
19113;SDS011;9689;51.052;13.772;2022-09-27T18:16:08;2.17;;;1.30;;
19113;SDS011;9689;51.052;13.772;2022-09-27T18:21:12;2.42;;;1.30;;
19113;SDS011;9689;51.052;13.772;2022-09-27T18:26:14;2.35;;;1.10;;
19113;SDS011;9689;51.052;13.772;2022-09-27T18:31:15;2.08;;;1.15;;
19113;SDS011;9689;51.052;13.772;2022-09-27T18:36:18;2.38;;;1.00;;
19113;SDS011;9689;51.052;13.772;2022-09-27T18:41:21;1.67;;;0.88;;
19113;SDS011;9689;51.052;13.772;2022-09-27T18:46:23;1.30;;;1.10;;
19113;SDS011;9689;51.052;13.772;2022-09-27T18:51:36;1.55;;;0.82;;
19113;SDS011;9689;51.052;13.772;2022-09-27T18:56:40;1.70;;;1.08;;
19113;SDS011;9689;51.052;13.772;2022-09-27T19:01:42;2.15;;;1.00;;
19113;SDS011;9689;51.052;13.772;2022-09-27T19:06:45;1.40;;;0.93;;
19113;SDS011;9689;51.052;13.772;2022-09-27T19:11:46;1.17;;;0.88;;
19113;SDS011;9689;51.052;13.772;2022-09-27T19:16:47;1.20;;;0.85;;
19113;SDS011;9689;51.052;13.772;2022-09-27T19:21:49;2.40;;;0.90;;
19113;SDS011;9689;51.052;13.772;2022-09-27T19:26:50;1.40;;;0.90;;
19113;SDS011;9689;51.052;13.772;2022-09-27T19:31:52;2.17;;;1.17;;
19113;SDS011;9689;51.052;13.772;2022-09-27T19:36:55;1.20;;;0.93;;
19113;SDS011;9689;51.052;13.772;2022-09-27T19:41:55;5.03;;;1.40;;
19113;SDS011;9689;51.052;13.772;2022-09-27T19:46:56;2.95;;;1.00;;
19113;SDS011;9689;51.052;13.772;2022-09-27T19:51:58;1.83;;;0.80;;
19113;SDS011;9689;51.052;13.772;2022-09-27T19:56:59;1.20;;;0.95;;
19113;SDS011;9689;51.052;13.772;2022-09-27T20:02:00;1.13;;;0.80;;
19113;SDS011;9689;51.052;13.772;2022-09-27T20:07:02;2.72;;;1.70;;
19113;SDS011;9689;51.052;13.772;2022-09-27T20:12:03;1.00;;;0.90;;
19113;SDS011;9689;51.052;13.772;2022-09-27T20:17:04;3.45;;;0.98;;
19113;SDS011;9689;51.052;13.772;2022-09-27T20:22:07;1.92;;;0.70;;
19113;SDS011;9689;51.052;13.772;2022-09-27T20:27:08;3.42;;;0.80;;
19113;SDS011;9689;51.052;13.772;2022-09-27T20:32:08;1.25;;;0.70;;
19113;SDS011;9689;51.052;13.772;2022-09-27T20:37:28;3.35;;;1.05;;
19113;SDS011;9689;51.052;13.772;2022-09-27T20:42:29;4.03;;;0.90;;
19113;SDS011;9689;51.052;13.772;2022-09-27T20:47:30;2.38;;;1.10;;
19113;SDS011;9689;51.052;13.772;2022-09-27T20:52:32;2.25;;;0.90;;
19113;SDS011;9689;51.052;13.772;2022-09-27T20:57:33;1.38;;;0.93;;
19113;SDS011;9689;51.052;13.772;2022-09-27T21:02:54;6.70;;;1.70;;
19113;SDS011;9689;51.052;13.772;2022-09-27T21:07:56;2.55;;;0.90;;
19113;SDS011;9689;51.052;13.772;2022-09-27T21:12:57;2.13;;;1.50;;
19113;SDS011;9689;51.052;13.772;2022-09-27T21:17:58;1.27;;;0.80;;
19113;SDS011;9689;51.052;13.772;2022-09-27T21:23:00;3.30;;;1.48;;
19113;SDS011;9689;51.052;13.772;2022-09-27T21:28:00;5.30;;;1.40;;
19113;SDS011;9689;51.052;13.772;2022-09-27T21:33:02;1.92;;;1.10;;
19113;SDS011;9689;51.052;13.772;2022-09-27T21:38:04;3.05;;;1.35;;
19113;SDS011;9689;51.052;13.772;2022-09-27T21:43:05;2.45;;;1.20;;
19113;SDS011;9689;51.052;13.772;2022-09-27T21:48:07;3.35;;;1.33;;
19113;SDS011;9689;51.052;13.772;2022-09-27T21:53:09;5.00;;;1.17;;
19113;SDS011;9689;51.052;13.772;2022-09-27T21:58:09;1.45;;;1.00;;
19113;SDS011;9689;51.052;13.772;2022-09-27T22:03:11;1.05;;;0.95;;
19113;SDS011;9689;51.052;13.772;2022-09-27T22:08:14;3.80;;;1.10;;
19113;SDS011;9689;51.052;13.772;2022-09-27T22:13:15;1.20;;;0.70;;
19113;SDS011;9689;51.052;13.772;2022-09-27T22:18:16;2.90;;;0.80;;
19113;SDS011;9689;51.052;13.772;2022-09-27T22:23:19;3.97;;;1.35;;
19113;SDS011;9689;51.052;13.772;2022-09-27T22:28:19;2.13;;;1.20;;
19113;SDS011;9689;51.052;13.772;2022-09-27T22:33:20;1.20;;;0.70;;
19113;SDS011;9689;51.052;13.772;2022-09-27T22:38:22;0.85;;;0.55;;
19113;SDS011;9689;51.052;13.772;2022-09-27T22:43:23;3.08;;;0.95;;
19113;SDS011;9689;51.052;13.772;2022-09-27T22:48:24;2.00;;;1.00;;
19113;SDS011;9689;51.052;13.772;2022-09-27T22:53:28;1.65;;;0.90;;
19113;SDS011;9689;51.052;13.772;2022-09-27T22:58:30;4.97;;;0.93;;
19113;SDS011;9689;51.052;13.772;2022-09-27T23:03:31;2.38;;;0.70;;
19113;SDS011;9689;51.052;13.772;2022-09-27T23:08:33;2.85;;;0.88;;
19113;SDS011;9689;51.052;13.772;2022-09-27T23:13:35;1.20;;;0.70;;
19113;SDS011;9689;51.052;13.772;2022-09-27T23:18:37;4.43;;;0.68;;
19113;SDS011;9689;51.052;13.772;2022-09-27T23:23:40;1.00;;;0.80;;
19113;SDS011;9689;51.052;13.772;2022-09-27T23:28:43;0.75;;;0.70;;
19113;SDS011;9689;51.052;13.772;2022-09-27T23:33:44;1.02;;;0.60;;
19113;SDS011;9689;51.052;13.772;2022-09-27T23:38:48;1.50;;;0.93;;
19113;SDS011;9689;51.052;13.772;2022-09-27T23:43:49;2.55;;;0.60;;
19113;SDS011;9689;51.052;13.772;2022-09-27T23:48:51;1.42;;;0.70;;
19113;SDS011;9689;51.052;13.772;2022-09-27T23:53:53;2.85;;;0.68;;
19113;SDS011;9689;51.052;13.772;2022-09-27T23:58:56;0.95;;;0.60;;
